EJU weather

El Juncal Airport
Palermo, Huila Department, Colombia

Public forecast

Using degrees Celsius for public forecast. Weather courtesy of forecast.io.

Closest aviation weather report (METAR) to El Juncal Airport

Closest report is Benito Salas Airport, 6.3 nm (11.7 km) N. Retrieved 2019/10/17 23:00 UTC (54 minutes ago):

SKNV 172300Z 21003KT 9999 FEW045 33/17 A2974

Closest aviation forecast (TAF) to El Juncal Airport

Closest forecast is Alfonso Bonilla Aragon International Airport, 76.5 nm (141.7 km) WNW. Retrieved 2019/10/17 18:39 UTC (5 hours ago):

TAF SKCL 171630Z 1718/1818 04006KT 5000 HZ SCT020 BKN090 BECMG 1803/1805 VRB02KT TEMPO 1808/1812 4000 TSRA SCT014CB BECMG 1814/1816 36010KT 9999 NSW FEW025 SCT120 TX30/1719Z TN18/1811Z